createdAt,value
2022-12-24T00:03:16.030Z,12.97
2022-12-24T00:08:17.609Z,12.98
2022-12-24T00:13:19.512Z,12.97
2022-12-24T00:18:21.087Z,12.82
2022-12-24T00:23:22.894Z,12.80
2022-12-24T00:28:24.444Z,12.58
2022-12-24T00:33:26.104Z,12.74
2022-12-24T00:38:27.671Z,12.93
2022-12-24T00:43:30.111Z,12.99
2022-12-24T00:48:31.667Z,12.62
2022-12-24T00:53:33.278Z,12.72
2022-12-24T00:58:35.005Z,12.96
2022-12-24T01:03:36.682Z,12.95
2022-12-24T01:08:38.598Z,12.93
2022-12-24T01:13:40.286Z,12.85
2022-12-24T01:18:41.922Z,12.87
2022-12-24T01:23:44.018Z,12.90
2022-12-24T01:28:45.617Z,12.94
2022-12-24T01:33:49.064Z,12.93
2022-12-24T01:38:50.657Z,13.06
2022-12-24T01:43:52.253Z,13.02
2022-12-24T01:48:59.696Z,13.07
2022-12-24T01:54:13.061Z,12.91
2022-12-24T01:59:18.033Z,12.78
2022-12-24T02:04:38.049Z,12.64
2022-12-24T02:09:40.112Z,12.57
2022-12-24T02:14:41.677Z,12.50
2022-12-24T02:20:20.889Z,12.52
2022-12-24T02:25:50.466Z,12.41
2022-12-24T02:31:05.686Z,12.39
2022-12-24T02:36:20.485Z,12.40
2022-12-24T02:41:26.890Z,12.54
2022-12-24T02:46:32.299Z,12.59
2022-12-24T02:51:35.005Z,12.61
2022-12-24T02:57:08.405Z,12.63
2022-12-24T03:02:26.669Z,12.63
2022-12-24T03:07:47.608Z,12.75
2022-12-24T03:13:07.788Z,12.76
2022-12-24T03:18:12.045Z,12.66
2022-12-24T03:23:14.112Z,12.73
2022-12-24T03:28:18.846Z,12.64
2022-12-24T03:33:20.917Z,12.59
2022-12-24T03:38:22.573Z,12.52
2022-12-24T03:43:24.130Z,12.29
2022-12-24T03:48:32.385Z,12.01
2022-12-24T03:53:34.336Z,11.52
2022-12-24T03:58:35.986Z,11.43
2022-12-24T04:03:37.582Z,11.25
2022-12-24T04:08:40.166Z,11.23
2022-12-24T04:13:41.941Z,11.09
2022-12-24T04:18:43.781Z,10.86
2022-12-24T04:23:45.815Z,10.64
2022-12-24T04:28:47.372Z,10.51
2022-12-24T04:33:51.797Z,10.48
2022-12-24T04:38:53.336Z,10.59
2022-12-24T04:43:55.420Z,10.56
2022-12-24T04:48:57.263Z,10.52
2022-12-24T04:53:58.895Z,10.53
2022-12-24T04:59:01.659Z,10.55
2022-12-24T05:04:03.253Z,10.51
2022-12-24T05:09:04.882Z,10.54
2022-12-24T05:14:06.567Z,10.47
2022-12-24T05:19:08.204Z,10.50
2022-12-24T05:24:13.104Z,10.50
2022-12-24T05:29:14.776Z,10.55
2022-12-24T05:34:16.839Z,10.62
2022-12-24T05:39:19.000Z,10.94
2022-12-24T05:44:20.651Z,11.08
2022-12-24T05:49:22.227Z,11.01
2022-12-24T05:54:23.933Z,10.93
2022-12-24T05:59:25.496Z,11.01
2022-12-24T06:04:29.283Z,10.94
2022-12-24T06:09:31.174Z,11.10
2022-12-24T06:14:32.785Z,11.21
2022-12-24T06:19:34.343Z,11.15
2022-12-24T06:24:35.952Z,11.07
2022-12-24T06:29:37.529Z,11.02
2022-12-24T06:34:39.182Z,11.32
2022-12-24T06:39:40.692Z,11.42
2022-12-24T06:44:42.303Z,11.43
2022-12-24T06:49:43.859Z,11.46
2022-12-24T06:54:45.523Z,11.56
2022-12-24T06:59:47.180Z,11.54
2022-12-24T07:04:48.813Z,11.59
2022-12-24T07:09:50.421Z,11.57
2022-12-24T07:14:51.950Z,11.62
2022-12-24T07:19:53.685Z,11.67
2022-12-24T07:24:55.289Z,11.61
2022-12-24T07:29:56.860Z,11.66
2022-12-24T07:34:58.610Z,11.73
2022-12-24T07:40:00.388Z,11.82
2022-12-24T07:45:02.035Z,11.80
2022-12-24T07:50:05.350Z,11.98
2022-12-24T07:55:07.122Z,11.84
2022-12-24T08:00:09.175Z,11.76
2022-12-24T08:05:13.421Z,11.52
2022-12-24T08:10:15.168Z,11.44
2022-12-24T08:15:17.399Z,11.61
2022-12-24T08:20:19.194Z,11.75
2022-12-24T08:25:20.754Z,12.00
2022-12-24T08:30:22.423Z,12.14
2022-12-24T08:35:24.076Z,12.48
2022-12-24T08:40:26.012Z,12.75
2022-12-24T08:45:27.584Z,12.78
2022-12-24T08:50:29.137Z,12.83
2022-12-24T08:55:31.208Z,12.52
2022-12-24T09:00:32.754Z,11.89
2022-12-24T09:05:34.300Z,11.89
2022-12-24T09:10:35.868Z,11.79
2022-12-24T09:15:37.688Z,11.83
2022-12-24T09:20:44.287Z,11.93
2022-12-24T09:25:48.161Z,11.94
2022-12-24T09:31:00.932Z,12.03
2022-12-24T09:36:03.619Z,12.01
2022-12-24T09:41:53.218Z,12.11
2022-12-24T09:46:55.757Z,12.30
2022-12-24T09:52:04.736Z,12.62
2022-12-24T09:57:21.170Z,12.74
2022-12-24T10:02:23.078Z,12.78
2022-12-24T10:07:45.616Z,12.96
2022-12-24T10:12:59.314Z,13.02
2022-12-24T10:18:26.922Z,13.07
2022-12-24T10:23:35.997Z,13.10
2022-12-24T10:28:41.229Z,13.22
2022-12-24T10:33:49.534Z,13.38
2022-12-24T10:38:51.307Z,13.29
2022-12-24T10:43:54.143Z,13.48
2022-12-24T10:49:02.330Z,13.42
2022-12-24T10:54:10.842Z,13.40
2022-12-24T10:59:34.167Z,13.31
2022-12-24T11:04:49.380Z,13.26
2022-12-24T11:10:08.049Z,13.18
2022-12-24T11:15:19.132Z,13.34
2022-12-24T11:20:27.206Z,13.66
2022-12-24T11:25:31.422Z,13.77
2022-12-24T11:30:32.977Z,13.46
2022-12-24T11:35:41.478Z,13.45
2022-12-24T11:40:46.304Z,13.53
2022-12-24T11:45:56.618Z,13.35
2022-12-24T11:51:01.228Z,13.33
2022-12-24T11:56:12.126Z,13.46
2022-12-24T12:01:20.788Z,13.44
2022-12-24T12:06:34.263Z,13.56
2022-12-24T12:11:40.101Z,13.68
2022-12-24T12:16:57.576Z,13.77
2022-12-24T12:22:04.014Z,13.75
2022-12-24T12:27:26.865Z,14.47
2022-12-24T12:32:34.715Z,14.88
2022-12-24T12:37:41.430Z,14.79
2022-12-24T12:43:28.090Z,14.82
2022-12-24T12:48:29.576Z,14.60
2022-12-24T12:53:42.746Z,14.54
2022-12-24T12:59:15.337Z,14.57
2022-12-24T13:04:30.471Z,14.23
2022-12-24T13:09:50.398Z,14.66
2022-12-24T13:15:13.556Z,14.36
2022-12-24T13:20:20.740Z,14.13
2022-12-24T13:25:28.708Z,14.02
2022-12-24T13:30:40.263Z,14.09
2022-12-24T13:36:08.576Z,13.99
2022-12-24T13:41:38.316Z,13.94
2022-12-24T13:47:05.488Z,14.06
2022-12-24T13:52:11.296Z,13.88
2022-12-24T13:57:42.306Z,14.07
2022-12-24T14:03:06.857Z,14.46
2022-12-24T14:08:30.435Z,14.77
2022-12-24T14:13:40.798Z,14.63
2022-12-24T14:19:04.548Z,14.79
2022-12-24T14:24:27.324Z,14.58
2022-12-24T14:29:33.868Z,14.56
2022-12-24T14:34:35.455Z,14.50
2022-12-24T14:39:43.668Z,14.34
2022-12-24T14:45:06.944Z,13.98
2022-12-24T14:50:36.199Z,13.79
2022-12-24T14:55:44.429Z,13.75
2022-12-24T15:00:46.401Z,13.66
2022-12-24T15:05:57.822Z,13.56
2022-12-24T15:11:02.987Z,13.54
2022-12-24T15:16:24.429Z,13.42
2022-12-24T15:21:30.409Z,13.43
2022-12-24T15:26:35.436Z,13.41
2022-12-24T15:31:37.124Z,13.28
2022-12-24T15:36:39.152Z,13.17
2022-12-24T15:41:43.896Z,13.18
2022-12-24T15:46:46.058Z,13.17
2022-12-24T15:51:47.883Z,13.02
2022-12-24T15:56:49.796Z,13.04
2022-12-24T16:01:51.958Z,12.78
2022-12-24T16:06:56.722Z,12.21
2022-12-24T16:12:03.250Z,11.69
2022-12-24T16:17:37.198Z,11.45
2022-12-24T16:22:39.052Z,11.26
2022-12-24T16:27:40.741Z,10.82
2022-12-24T16:32:42.503Z,10.55
2022-12-24T16:37:44.134Z,10.41
2022-12-24T16:42:45.793Z,10.77
2022-12-24T16:47:47.433Z,11.18
2022-12-24T16:52:49.084Z,11.35
2022-12-24T16:57:50.806Z,11.31
2022-12-24T17:02:53.355Z,10.62
2022-12-24T17:07:55.151Z,10.67
2022-12-24T17:12:56.787Z,10.86
2022-12-24T17:18:00.491Z,10.45
2022-12-24T17:23:02.254Z,10.01
2022-12-24T17:28:03.992Z,9.65
2022-12-24T17:33:10.896Z,9.61
2022-12-24T17:38:15.892Z,9.37
2022-12-24T17:43:17.551Z,9.19
2022-12-24T17:48:19.105Z,9.21
2022-12-24T17:53:20.723Z,9.14
2022-12-24T17:58:22.379Z,8.87
2022-12-24T18:03:24.875Z,9.15
2022-12-24T18:08:26.646Z,9.08
2022-12-24T18:13:28.319Z,8.83
2022-12-24T18:18:29.843Z,8.77
2022-12-24T18:23:31.473Z,8.68
2022-12-24T18:28:33.132Z,8.79
2022-12-24T18:33:35.371Z,9.00
2022-12-24T18:38:37.769Z,9.10
2022-12-24T18:43:39.838Z,9.21
2022-12-24T18:48:41.842Z,9.16
2022-12-24T18:53:43.415Z,9.09
2022-12-24T18:58:45.296Z,8.98
2022-12-24T19:03:47.555Z,9.02
2022-12-24T19:08:59.030Z,8.99
2022-12-24T19:14:04.247Z,9.07
2022-12-24T19:19:08.898Z,9.10
2022-12-24T19:24:10.577Z,9.12
2022-12-24T19:29:12.454Z,9.20
2022-12-24T19:34:14.244Z,9.10
2022-12-24T19:39:16.214Z,9.02
2022-12-24T19:44:17.995Z,8.99
2022-12-24T19:49:19.872Z,9.03
2022-12-24T19:54:21.578Z,9.01
2022-12-24T19:59:23.153Z,9.17
2022-12-24T20:04:24.697Z,9.23
2022-12-24T20:09:26.277Z,9.17
2022-12-24T20:14:27.970Z,9.01
2022-12-24T20:19:29.692Z,8.93
2022-12-24T20:24:31.330Z,8.87
2022-12-24T20:29:32.877Z,8.90
2022-12-24T20:34:35.251Z,8.84
2022-12-24T20:39:36.922Z,8.86
2022-12-24T20:44:38.727Z,8.81
2022-12-24T20:49:40.510Z,8.80
2022-12-24T20:54:42.097Z,8.79
2022-12-24T20:59:43.676Z,8.83
2022-12-24T21:04:45.209Z,8.77
2022-12-24T21:09:46.786Z,8.70
2022-12-24T21:14:48.334Z,8.89
2022-12-24T21:19:50.050Z,8.96
2022-12-24T21:24:52.766Z,8.97
2022-12-24T21:29:54.332Z,9.02
2022-12-24T21:34:55.895Z,9.01
2022-12-24T21:39:57.419Z,8.87
2022-12-24T21:44:59.470Z,8.77
2022-12-24T21:50:01.030Z,8.85
2022-12-24T21:55:02.653Z,9.08
2022-12-24T22:00:04.784Z,9.35
2022-12-24T22:05:06.792Z,9.43
2022-12-24T22:10:10.074Z,9.38
2022-12-24T22:15:11.925Z,9.41
2022-12-24T22:20:13.535Z,9.37
2022-12-24T22:25:15.778Z,9.15
2022-12-24T22:30:17.473Z,9.10
2022-12-24T22:35:19.107Z,9.18
2022-12-24T22:40:20.595Z,9.07
2022-12-24T22:45:22.950Z,8.79
2022-12-24T22:50:24.631Z,8.71
2022-12-24T22:55:26.149Z,8.66
2022-12-24T23:00:57.043Z,8.73
2022-12-24T23:06:00.543Z,8.72
2022-12-24T23:11:11.763Z,8.86
2022-12-24T23:16:13.348Z,8.94
2022-12-24T23:21:15.058Z,9.05
2022-12-24T23:26:19.329Z,9.29
2022-12-24T23:31:22.527Z,9.45
2022-12-24T23:36:24.115Z,9.45
2022-12-24T23:41:25.716Z,9.45
2022-12-24T23:46:27.285Z,9.32
2022-12-24T23:51:28.843Z,9.30
2022-12-24T23:56:30.358Z,9.35
